Time;durP1;ratioP1;P1;durP2;ratioP2;P2;SDS_P1;SDS_P2;PMS_P1;PMS_P2;Temp;Humidity;BMP_temperature;BMP_pressure;BME280_temperature;BME280_humidity;BME280_pressure;Samples;Min_cycle;Max_cycle;Signal;HPM_P1;HPM_P2
2021/04/08 00:00:07;;;;;;;8.75;1.17;;;2.40;99.90;;;;;;5070661;28;20024;-69
2021/04/08 00:02:32;;;;;;;4.45;1.02;;;2.40;99.90;;;;;;5070477;28;20024;-69
2021/04/08 00:04:58;;;;;;;5.40;1.13;;;2.40;99.90;;;;;;5071288;28;20073;-70
2021/04/08 00:07:24;;;;;;;6.82;1.05;;;2.40;99.90;;;;;;5070677;28;20503;-70
2021/04/08 00:09:49;;;;;;;9.73;1.73;;;2.30;99.90;;;;;;5071680;28;20029;-70
2021/04/08 00:12:15;;;;;;;8.10;1.17;;;2.30;99.90;;;;;;5071308;28;20025;-69
2021/04/08 00:14:40;;;;;;;8.82;1.10;;;2.30;99.90;;;;;;5070934;28;20021;-69
2021/04/08 00:17:06;;;;;;;9.27;1.05;;;2.30;99.90;;;;;;5071067;28;20111;-68
2021/04/08 00:19:32;;;;;;;7.35;1.08;;;2.30;99.90;;;;;;5071769;28;20020;-68
2021/04/08 00:21:57;;;;;;;5.75;0.85;;;2.30;99.90;;;;;;5070779;28;20024;-69
2021/04/08 00:24:23;;;;;;;5.50;0.95;;;2.30;99.90;;;;;;5071371;28;20135;-69
2021/04/08 00:26:48;;;;;;;5.45;1.20;;;2.40;99.90;;;;;;5071532;28;20090;-69
2021/04/08 00:29:14;;;;;;;4.63;0.80;;;2.30;99.90;;;;;;5070165;28;20431;-70
2021/04/08 00:31:39;;;;;;;6.20;0.98;;;2.40;99.90;;;;;;5071509;28;20391;-69
2021/04/08 00:34:05;;;;;;;3.35;1.00;;;2.40;99.90;;;;;;5070820;28;20430;-69
2021/04/08 00:36:30;;;;;;;8.32;1.08;;;2.40;99.90;;;;;;5070709;28;20094;-69
2021/04/08 00:38:56;;;;;;;10.38;0.98;;;2.40;99.90;;;;;;5071507;28;20107;-69
2021/04/08 00:41:22;;;;;;;7.20;0.90;;;2.40;99.90;;;;;;5070889;28;20099;-69
2021/04/08 00:43:48;;;;;;;1.33;0.57;;;2.40;99.90;;;;;;5070508;28;20041;-68
2021/04/08 00:46:13;;;;;;;6.53;0.75;;;2.40;99.90;;;;;;5070781;28;20038;-70
2021/04/08 00:48:39;;;;;;;3.15;0.68;;;2.40;99.90;;;;;;5070951;28;20009;-69
2021/04/08 00:51:05;;;;;;;6.93;0.80;;;2.40;99.90;;;;;;5070176;28;20024;-69
2021/04/08 00:53:33;;;;;;;5.50;1.30;;;2.50;99.90;;;;;;5071198;28;20017;-70
2021/04/08 00:56:00;;;;;;;6.93;1.13;;;2.40;99.90;;;;;;5071091;28;20484;-69
2021/04/08 00:58:26;;;;;;;4.85;0.60;;;2.40;99.90;;;;;;5070327;28;20036;-69
2021/04/08 01:00:52;;;;;;;5.72;0.90;;;2.50;99.90;;;;;;5074688;28;20024;-69
2021/04/08 01:03:21;;;;;;;4.95;1.10;;;2.50;99.90;;;;;;5073890;28;20139;-69
2021/04/08 01:05:46;;;;;;;7.35;0.60;;;2.50;99.90;;;;;;5074692;28;20135;-69
2021/04/08 01:08:12;;;;;;;2.63;0.70;;;2.50;99.90;;;;;;5074162;28;20055;-68
2021/04/08 01:10:40;;;;;;;5.10;0.77;;;2.50;99.90;;;;;;5074003;28;20024;-69
2021/04/08 01:13:09;;;;;;;9.85;1.55;;;2.50;99.90;;;;;;5074342;28;20095;-69
2021/04/08 01:15:35;;;;;;;5.43;1.95;;;2.60;99.90;;;;;;5074328;28;20102;-69
2021/04/08 01:18:37;;;;;;;5.25;0.88;;;2.60;99.90;;;;;;5073846;28;20029;-68
2021/04/08 01:21:26;;;;;;;3.65;0.75;;;2.50;99.90;;;;;;5063722;28;20103;-69
2021/04/08 01:24:12;;;;;;;5.40;0.80;;;2.60;99.90;;;;;;5073662;28;20036;-69
2021/04/08 01:27:19;;;;;;;6.85;0.88;;;2.50;99.90;;;;;;5073882;28;20086;-68
2021/04/08 01:30:05;;;;;;;4.60;0.98;;;2.50;99.90;;;;;;5065380;28;20098;-69
2021/04/08 01:32:34;;;;;;;3.58;0.85;;;2.50;99.90;;;;;;5073357;28;20036;-68
2021/04/08 01:35:02;;;;;;;4.07;1.08;;;2.50;99.90;;;;;;5073977;28;20037;-69
2021/04/08 01:37:32;;;;;;;8.95;1.23;;;2.50;99.90;;;;;;5073610;28;20048;-68
2021/04/08 01:40:01;;;;;;;5.45;1.55;;;2.50;99.90;;;;;;5073404;28;20017;-68
2021/04/08 01:42:27;;;;;;;12.20;1.58;;;2.50;99.90;;;;;;5073637;28;20470;-70
2021/04/08 01:44:56;;;;;;;4.05;1.00;;;2.50;99.90;;;;;;5074038;28;20388;-68
2021/04/08 01:47:25;;;;;;;3.65;0.60;;;2.50;99.90;;;;;;5072882;28;20036;-68
2021/04/08 01:49:52;;;;;;;6.65;0.90;;;2.50;99.90;;;;;;5073806;28;20056;-69
2021/04/08 01:52:19;;;;;;;4.82;1.05;;;2.50;99.90;;;;;;5073408;28;20086;-69
2021/04/08 01:54:51;;;;;;;8.82;1.80;;;2.50;99.90;;;;;;5073217;28;20470;-69
2021/04/08 01:57:17;;;;;;;3.40;0.90;;;2.50;99.90;;;;;;5073587;28;20085;-68
2021/04/08 01:59:44;;;;;;;7.75;1.58;;;2.60;99.90;;;;;;5073521;28;20052;-69
2021/04/08 02:02:12;;;;;;;4.53;1.02;;;2.50;99.90;;;;;;5073735;28;20036;-70
2021/04/08 02:04:39;;;;;;;5.28;1.20;;;2.50;99.90;;;;;;5073231;28;20048;-70
2021/04/08 02:07:05;;;;;;;6.70;1.88;;;2.60;99.90;;;;;;5072563;28;20036;-70
2021/04/08 02:09:33;;;;;;;9.88;1.20;;;2.50;99.90;;;;;;5073354;28;20021;-70
2021/04/08 02:12:00;;;;;;;4.97;1.00;;;2.60;99.90;;;;;;5068936;28;20029;-69
2021/04/08 02:14:27;;;;;;;5.72;1.30;;;2.60;99.90;;;;;;5063427;28;20070;-68
2021/04/08 02:16:54;;;;;;;9.65;1.20;;;2.50;99.90;;;;;;5073196;28;20027;-68
2021/04/08 02:19:22;;;;;;;10.02;1.67;;;2.60;99.90;;;;;;5073127;28;20035;-69
2021/04/08 02:21:50;;;;;;;4.28;1.02;;;2.60;99.90;;;;;;5072259;28;20035;-69
2021/04/08 02:24:17;;;;;;;9.02;0.98;;;2.60;99.90;;;;;;5073090;28;20028;-69
2021/04/08 02:26:44;;;;;;;2.78;0.88;;;2.60;99.90;;;;;;5073332;28;20033;-69
2021/04/08 02:29:12;;;;;;;7.43;0.90;;;2.60;99.90;;;;;;5058462;28;20019;-69
2021/04/08 02:31:38;;;;;;;5.18;0.80;;;2.60;99.90;;;;;;5073382;28;20119;-69
2021/04/08 02:34:09;;;;;;;6.40;1.40;;;2.60;99.90;;;;;;5068419;28;20432;-71
2021/04/08 02:36:40;;;;;;;4.07;1.02;;;2.60;99.90;;;;;;5063545;28;20037;-69
2021/04/08 02:39:08;;;;;;;4.18;1.05;;;2.60;99.90;;;;;;5072527;28;20056;-70
2021/04/08 02:41:46;;;;;;;7.38;1.33;;;2.60;99.90;;;;;;5073035;28;20044;-69
2021/04/08 02:44:15;;;;;;;4.72;0.80;;;2.60;99.90;;;;;;5058555;28;20043;-69
2021/04/08 02:46:41;;;;;;;5.03;0.80;;;2.60;99.90;;;;;;5072801;28;20042;-69
2021/04/08 02:49:07;;;;;;;2.38;1.20;;;2.60;99.90;;;;;;5071684;28;20016;-68
2021/04/08 02:51:41;;;;;;;3.97;1.10;;;2.50;99.90;;;;;;5072591;28;20086;-68
2021/04/08 02:54:32;;;;;;;4.00;1.08;;;2.60;99.90;;;;;;5072299;28;20028;-68
2021/04/08 02:57:00;;;;;;;5.50;1.20;;;2.60;99.90;;;;;;5071828;28;20052;-69
2021/04/08 02:59:48;;;;;;;6.05;1.15;;;2.60;99.90;;;;;;5072076;28;20499;-69
2021/04/08 03:02:20;;;;;;;4.40;0.77;;;2.60;99.90;;;;;;5072549;28;20056;-70
2021/04/08 03:04:49;;;;;;;5.65;1.10;;;2.60;99.90;;;;;;5071473;28;20045;-70
2021/04/08 03:07:20;;;;;;;3.28;0.90;;;2.60;99.90;;;;;;5071969;28;20036;-70
2021/04/08 03:09:47;;;;;;;3.65;1.05;;;2.50;99.90;;;;;;5071893;28;20048;-69
2021/04/08 03:12:15;;;;;;;3.90;1.33;;;2.50;99.90;;;;;;5065278;28;20025;-69
2021/04/08 03:14:50;;;;;;;3.90;1.10;;;2.40;99.90;;;;;;5065476;28;20028;-69
2021/04/08 03:17:24;;;;;;;5.30;1.40;;;2.30;99.90;;;;;;5071421;28;20032;-70
2021/04/08 03:19:52;;;;;;;6.18;1.20;;;2.20;99.90;;;;;;5072416;28;20032;-69
2021/04/08 03:22:22;;;;;;;4.72;0.80;;;2.10;99.90;;;;;;5071253;28;20020;-70
2021/04/08 03:24:51;;;;;;;7.03;1.20;;;2.00;99.90;;;;;;5071354;28;20413;-70
2021/04/08 03:27:18;;;;;;;3.70;1.30;;;1.90;99.90;;;;;;5071476;28;20552;-70
2021/04/08 03:29:44;;;;;;;5.85;1.27;;;1.90;99.90;;;;;;5072043;28;20024;-68
2021/04/08 03:32:10;;;;;;;4.13;1.48;;;1.90;99.90;;;;;;5070916;28;20153;-68
2021/04/08 03:34:38;;;;;;;6.75;2.03;;;1.90;99.90;;;;;;5072017;28;20021;-69
2021/04/08 03:37:04;;;;;;;3.30;1.45;;;1.80;99.90;;;;;;5071297;28;20032;-68
2021/04/08 03:39:30;;;;;;;5.10;1.58;;;1.90;99.90;;;;;;5071303;28;20055;-68
2021/04/08 03:41:57;;;;;;;6.35;1.60;;;1.90;99.90;;;;;;5071889;28;20044;-69
2021/04/08 03:44:23;;;;;;;5.15;1.27;;;1.80;99.90;;;;;;5071319;28;20529;-69
2021/04/08 03:46:50;;;;;;;6.38;1.60;;;1.80;99.90;;;;;;5071056;28;20040;-69
2021/04/08 03:49:17;;;;;;;12.00;1.80;;;1.80;99.90;;;;;;5071178;28;20024;-69
2021/04/08 03:51:45;;;;;;;11.68;1.92;;;1.80;99.90;;;;;;5071551;28;20108;-69
2021/04/08 03:54:13;;;;;;;10.85;1.63;;;1.80;99.90;;;;;;5070690;28;20020;-70
2021/04/08 03:56:47;;;;;;;3.03;1.00;;;1.90;99.90;;;;;;5071622;28;20460;-69
2021/04/08 03:59:14;;;;;;;6.40;1.50;;;1.90;99.90;;;;;;5069733;28;20029;-69
2021/04/08 04:01:40;;;;;;;6.60;1.55;;;2.00;99.90;;;;;;5062352;28;20028;-70
2021/04/08 04:04:08;;;;;;;5.97;2.00;;;2.10;99.90;;;;;;5062060;28;20057;-68
2021/04/08 04:06:36;;;;;;;7.65;1.25;;;2.10;99.90;;;;;;5050720;28;20032;-69
2021/04/08 04:09:05;;;;;;;8.13;1.70;;;2.20;99.90;;;;;;5063977;28;20388;-69
2021/04/08 04:11:32;;;;;;;6.90;1.67;;;2.20;99.90;;;;;;5067643;28;20024;-69
2021/04/08 04:14:00;;;;;;;4.22;1.58;;;2.20;99.90;;;;;;5071117;28;20052;-68
2021/04/08 04:16:26;;;;;;;5.63;1.30;;;2.20;99.90;;;;;;5071669;28;20050;-68
2021/04/08 04:18:52;;;;;;;6.85;1.50;;;2.30;99.90;;;;;;5071171;28;20031;-68
2021/04/08 04:21:17;;;;;;;4.95;1.50;;;2.30;99.90;;;;;;5059393;28;20029;-69
2021/04/08 04:23:43;;;;;;;9.13;1.70;;;2.30;99.90;;;;;;5068730;28;20055;-69
2021/04/08 04:26:10;;;;;;;3.45;1.38;;;2.30;99.90;;;;;;5071164;28;20032;-69
2021/04/08 04:28:36;;;;;;;3.38;1.30;;;2.30;99.90;;;;;;5070446;28;20500;-69
2021/04/08 04:31:01;;;;;;;3.67;1.58;;;2.30;99.90;;;;;;5071496;28;20043;-69
2021/04/08 04:33:27;;;;;;;2.08;1.00;;;2.40;99.90;;;;;;5070991;28;20054;-69
2021/04/08 04:35:54;;;;;;;1.73;1.08;;;2.40;99.90;;;;;;5074774;28;20027;-70
2021/04/08 04:38:20;;;;;;;5.38;1.25;;;2.40;99.90;;;;;;5073793;28;20488;-69
2021/04/08 04:40:45;;;;;;;5.78;2.17;;;2.40;99.90;;;;;;5075377;28;20023;-69
2021/04/08 04:43:11;;;;;;;5.78;1.42;;;2.40;99.90;;;;;;5074209;28;20027;-69
2021/04/08 04:45:36;;;;;;;3.75;1.23;;;2.40;99.90;;;;;;5074811;28;20060;-70
2021/04/08 04:48:02;;;;;;;3.90;1.02;;;2.50;99.90;;;;;;5074480;28;20031;-69
2021/04/08 04:50:28;;;;;;;5.25;1.17;;;2.50;99.90;;;;;;5060707;28;20112;-69
2021/04/08 04:52:53;;;;;;;3.45;1.35;;;2.50;99.90;;;;;;5068821;28;20550;-69
2021/04/08 04:55:19;;;;;;;7.88;1.30;;;2.50;99.90;;;;;;5062314;28;20113;-69
2021/04/08 04:57:45;;;;;;;7.07;1.50;;;2.50;99.90;;;;;;5072054;28;20479;-70
2021/04/08 05:00:10;;;;;;;3.55;1.02;;;2.50;99.90;;;;;;5074340;28;20111;-69
2021/04/08 05:02:36;;;;;;;7.15;1.38;;;2.40;99.90;;;;;;5071641;28;20059;-69
2021/04/08 05:05:02;;;;;;;3.85;1.63;;;2.50;99.90;;;;;;5061705;28;20044;-69
2021/04/08 05:07:27;;;;;;;1.92;1.05;;;2.40;99.90;;;;;;5074454;28;20408;-69
2021/04/08 05:09:59;;;;;;;5.65;1.40;;;2.40;99.90;;;;;;5073588;28;20032;-69
2021/04/08 05:12:25;;;;;;;4.85;1.38;;;2.40;99.90;;;;;;5074147;28;20036;-69
2021/04/08 05:14:51;;;;;;;4.05;1.02;;;2.40;99.90;;;;;;5074245;28;20017;-68
2021/04/08 05:17:17;;;;;;;3.40;1.75;;;2.30;99.90;;;;;;5073439;28;20034;-68
2021/04/08 05:19:42;;;;;;;7.22;2.35;;;2.30;99.90;;;;;;5074252;28;20071;-69
2021/04/08 05:22:08;;;;;;;4.20;2.13;;;2.30;99.90;;;;;;5073990;28;20036;-69
2021/04/08 05:24:34;;;;;;;3.60;1.80;;;2.30;99.90;;;;;;5073451;28;20032;-70
2021/04/08 05:27:00;;;;;;;3.88;1.50;;;2.20;99.90;;;;;;5074129;28;20044;-69
2021/04/08 05:29:25;;;;;;;4.05;1.40;;;2.20;99.90;;;;;;5065115;28;20062;-69
2021/04/08 05:31:51;;;;;;;5.20;1.95;;;2.10;99.90;;;;;;5070117;28;20036;-69
2021/04/08 05:34:16;;;;;;;5.38;1.70;;;2.10;99.90;;;;;;5075409;28;20017;-69
2021/04/08 05:36:42;;;;;;;3.20;1.50;;;2.10;99.90;;;;;;5073679;28;20021;-68
2021/04/08 05:39:07;;;;;;;4.90;1.73;;;2.10;99.90;;;;;;5073585;28;20017;-69
2021/04/08 05:41:33;;;;;;;10.93;3.63;;;2.20;99.90;;;;;;5072991;28;20092;-68
2021/04/08 05:43:58;;;;;;;2.58;1.80;;;2.20;99.90;;;;;;5069746;28;20357;-69
2021/04/08 05:46:24;;;;;;;9.02;3.53;;;2.20;99.90;;;;;;5070792;28;20037;-69
2021/04/08 05:48:50;;;;;;;4.40;2.00;;;2.20;99.90;;;;;;5072561;28;20032;-70
2021/04/08 05:51:16;;;;;;;4.43;2.10;;;2.30;99.90;;;;;;5069341;28;20074;-70
2021/04/08 05:53:42;;;;;;;6.47;1.92;;;2.30;99.90;;;;;;5072058;28;20400;-68
2021/04/08 05:56:07;;;;;;;7.10;2.22;;;2.30;99.90;;;;;;5071940;28;20024;-69
2021/04/08 05:58:33;;;;;;;3.55;2.28;;;2.40;99.90;;;;;;5062789;28;20469;-69
2021/04/08 06:00:58;;;;;;;4.95;3.00;;;2.50;99.90;;;;;;5058113;28;20043;-68
2021/04/08 06:03:24;;;;;;;4.93;2.30;;;2.50;99.90;;;;;;5057847;28;20064;-69
2021/04/08 06:05:50;;;;;;;5.13;2.95;;;2.50;99.90;;;;;;5063787;28;20044;-69
2021/04/08 06:08:16;;;;;;;10.75;2.67;;;2.60;99.90;;;;;;5068784;28;20049;-69
2021/04/08 06:10:41;;;;;;;4.22;1.95;;;2.70;99.90;;;;;;5057860;28;20056;-69
2021/04/08 06:13:07;;;;;;;3.92;2.05;;;2.80;99.90;;;;;;5057705;28;20531;-69
2021/04/08 06:15:34;;;;;;;2.72;2.15;;;2.90;99.90;;;;;;5055678;28;20013;-69
2021/04/08 06:17:59;;;;;;;5.47;2.30;;;3.00;99.90;;;;;;5058245;28;20106;-69
2021/04/08 06:20:25;;;;;;;2.83;2.30;;;3.00;99.90;;;;;;5055796;28;20045;-69
2021/04/08 06:22:52;;;;;;;11.40;2.50;;;3.10;99.90;;;;;;5058093;28;20119;-69
2021/04/08 06:25:17;;;;;;;4.97;2.05;;;3.10;99.90;;;;;;5057209;28;20036;-68
2021/04/08 06:27:43;;;;;;;3.78;1.80;;;3.20;99.90;;;;;;5057123;28;20424;-70
2021/04/08 06:30:10;;;;;;;2.58;2.03;;;3.30;99.90;;;;;;5061245;28;20028;-69
2021/04/08 06:32:36;;;;;;;4.30;1.88;;;3.40;99.90;;;;;;5055294;28;20100;-72
2021/04/08 06:35:02;;;;;;;3.95;1.88;;;3.60;99.90;;;;;;5059732;28;20560;-72
2021/04/08 06:37:27;;;;;;;3.72;2.25;;;3.70;99.90;;;;;;5055770;28;20031;-73
2021/04/08 06:39:53;;;;;;;3.85;1.85;;;3.90;99.90;;;;;;5053735;28;20098;-73
2021/04/08 06:42:20;;;;;;;5.43;2.08;;;4.10;99.90;;;;;;5053663;28;20023;-72
2021/04/08 06:44:53;;;;;;;5.82;2.22;;;4.20;99.90;;;;;;5055828;28;20033;-72
2021/04/08 06:47:38;;;;;;;5.85;2.35;;;4.30;99.90;;;;;;5059276;28;20554;-72
2021/04/08 06:50:06;;;;;;;5.80;1.88;;;4.40;99.90;;;;;;5056129;28;20472;-72
2021/04/08 06:52:33;;;;;;;3.13;2.10;;;4.40;99.90;;;;;;5059903;28;20112;-72
2021/04/08 06:54:59;;;;;;;2.97;1.60;;;4.50;99.90;;;;;;5062496;28;20476;-73
2021/04/08 06:57:24;;;;;;;3.35;1.55;;;4.50;99.90;;;;;;5057560;28;20036;-71
2021/04/08 06:59:50;;;;;;;6.25;1.65;;;4.50;99.90;;;;;;5058721;28;20028;-72
2021/04/08 07:02:21;;;;;;;5.75;1.80;;;4.50;99.90;;;;;;5066000;28;20480;-71
2021/04/08 07:04:47;;;;;;;4.78;2.00;;;4.40;99.90;;;;;;5083532;28;20056;-72
2021/04/08 07:07:19;;;;;;;4.00;1.90;;;4.50;99.90;;;;;;5085981;28;20039;-72
2021/04/08 07:09:44;;;;;;;7.05;2.00;;;4.50;99.90;;;;;;5086538;28;20012;-72
2021/04/08 07:12:11;;;;;;;6.75;1.90;;;4.50;99.90;;;;;;5081706;28;20035;-72
2021/04/08 07:14:38;;;;;;;6.63;2.30;;;4.60;99.90;;;;;;5090062;28;20024;-72
2021/04/08 07:17:09;;;;;;;3.65;1.85;;;4.60;99.90;;;;;;5086848;28;20103;-72
2021/04/08 07:19:34;;;;;;;;;;;4.60;99.90;;;;;;5086182;28;20083;-73
2021/04/08 07:22:00;;;;;;;10.70;4.25;;;4.70;99.90;;;;;;5082964;28;19909;-73
2021/04/08 07:24:28;;;;;;;3.53;2.35;;;4.80;99.90;;;;;;5087225;28;20028;-74
2021/04/08 07:26:59;;;;;;;13.73;2.80;;;4.90;99.90;;;;;;5077636;28;20047;-73
2021/04/08 07:29:40;;;;;;;3.55;2.70;;;5.00;99.90;;;;;;5073016;28;20028;-73
2021/04/08 07:32:11;;;;;;;;;;;5.10;99.90;;;;;;5082692;28;20034;-73
2021/04/08 07:34:40;;;;;;;8.23;2.33;;;5.20;99.90;;;;;;5088255;28;19918;-73
2021/04/08 07:37:07;;;;;;;7.43;2.35;;;5.20;99.90;;;;;;5070419;28;20479;-73
2021/04/08 07:39:42;;;;;;;6.30;2.63;;;5.30;99.90;;;;;;5086706;28;20017;-73
2021/04/08 07:42:10;;;;;;;8.15;3.60;;;5.30;99.90;;;;;;5087158;28;20412;-73
2021/04/08 07:44:46;;;;;;;10.73;2.90;;;5.40;99.90;;;;;;5083499;28;20403;-76
2021/04/08 07:47:16;;;;;;;6.65;2.78;;;5.50;99.90;;;;;;5089540;28;20123;-77
2021/04/08 07:49:42;;;;;;;7.78;3.17;;;5.60;99.90;;;;;;5087135;28;20008;-77
2021/04/08 07:52:22;;;;;;;6.30;3.25;;;5.70;99.90;;;;;;5087597;28;20090;-76
2021/04/08 07:55:12;;;;;;;10.40;3.77;;;5.80;99.90;;;;;;5082591;28;20087;-76
2021/04/08 07:57:56;;;;;;;4.38;2.55;;;5.90;99.90;;;;;;5088348;28;20016;-77
2021/04/08 08:00:26;;;;;;;10.57;3.47;;;6.00;99.90;;;;;;5085547;28;20024;-77
2021/04/08 08:02:53;;;;;;;7.28;3.70;;;6.00;99.90;;;;;;5087929;28;20108;-77
2021/04/08 08:05:18;;;;;;;7.43;3.05;;;6.10;99.90;;;;;;5088075;28;20040;-76
2021/04/08 08:07:45;;;;;;;10.82;3.42;;;6.10;99.90;;;;;;5090923;28;20046;-75
2021/04/08 08:10:19;;;;;;;9.90;3.78;;;6.20;99.90;;;;;;5092675;28;20095;-75
2021/04/08 08:12:45;;;;;;;6.68;3.85;;;6.20;99.90;;;;;;5084142;28;20434;-74
2021/04/08 08:15:26;;;;;;;11.77;3.45;;;6.20;99.90;;;;;;5093689;28;20024;-73
2021/04/08 08:17:52;;;;;;;7.28;2.97;;;6.20;99.90;;;;;;5087761;28;20035;-73
2021/04/08 08:20:19;;;;;;;8.63;3.35;;;6.30;99.90;;;;;;5091862;28;20480;-73
2021/04/08 08:22:45;;;;;;;8.43;3.88;;;6.30;99.90;;;;;;5092201;28;20435;-74
2021/04/08 08:25:12;;;;;;;5.50;2.90;;;6.30;99.90;;;;;;5080209;28;20115;-72
2021/04/08 08:27:49;;;;;;;5.13;3.70;;;6.30;99.90;;;;;;5077950;28;20036;-73
2021/04/08 08:30:23;;;;;;;8.55;4.00;;;6.30;99.90;;;;;;5095289;28;20503;-73
2021/04/08 08:33:11;;;;;;;8.15;2.88;;;6.40;99.90;;;;;;5091848;28;20028;-72
2021/04/08 08:35:38;;;;;;;3.28;2.90;;;6.30;99.90;;;;;;5093277;28;20035;-74
2021/04/08 08:38:10;;;;;;;6.40;3.28;;;6.20;99.90;;;;;;5093926;28;20025;-74
2021/04/08 08:40:36;;;;;;;5.60;3.05;;;6.30;99.90;;;;;;5092065;28;20400;-75
2021/04/08 08:43:02;;;;;;;5.53;3.80;;;6.30;99.90;;;;;;5095465;28;20031;-73
2021/04/08 08:45:29;;;;;;;7.32;3.40;;;6.30;99.90;;;;;;5085338;28;20029;-73
2021/04/08 08:47:55;;;;;;;8.95;3.55;;;6.40;99.90;;;;;;5079022;28;20020;-73
2021/04/08 08:50:21;;;;;;;6.90;4.10;;;6.40;99.90;;;;;;5068790;28;20024;-73
2021/04/08 08:52:53;;;;;;;5.00;3.95;;;6.40;99.90;;;;;;5070332;28;20444;-74
2021/04/08 08:55:21;;;;;;;4.88;3.67;;;6.40;99.90;;;;;;5072547;28;20028;-73
2021/04/08 08:57:51;;;;;;;5.82;3.38;;;6.50;99.90;;;;;;5067561;28;20033;-75
2021/04/08 09:00:17;;;;;;;5.82;3.92;;;6.40;99.90;;;;;;5076666;28;20410;-74
2021/04/08 09:02:45;;;;;;;11.27;3.42;;;6.50;99.90;;;;;;5065314;28;20106;-73
2021/04/08 09:05:18;;;;;;;8.35;3.85;;;6.50;99.90;;;;;;5072802;28;20113;-73
2021/04/08 09:07:46;;;;;;;7.90;3.90;;;6.50;99.90;;;;;;5077227;28;20086;-73
2021/04/08 09:10:16;;;;;;;6.15;3.63;;;6.50;99.90;;;;;;5075441;28;20362;-73
2021/04/08 09:12:42;;;;;;;7.22;4.30;;;6.60;99.90;;;;;;5077072;28;20025;-72
2021/04/08 09:15:08;;;;;;;7.43;3.97;;;6.60;99.90;;;;;;5077913;28;20490;-73
2021/04/08 09:17:44;;;;;;;5.05;3.90;;;6.60;99.90;;;;;;5077237;28;20077;-73
2021/04/08 09:20:15;;;;;;;7.50;4.25;;;6.70;99.90;;;;;;5074906;28;20028;-73
2021/04/08 09:23:07;;;;;;;11.15;4.90;;;6.90;99.90;;;;;;5074211;28;20056;-73
2021/04/08 09:25:37;;;;;;;5.43;4.50;;;7.10;99.90;;;;;;5061226;28;20037;-73
2021/04/08 09:28:11;;;;;;;7.03;4.97;;;7.20;99.90;;;;;;5065784;28;20028;-73
2021/04/08 09:33:48;;;;;;;10.18;5.30;;;7.50;99.90;;;;;;5072898;28;20516;-70
2021/04/08 09:36:23;;;;;;;10.25;5.57;;;7.60;99.90;;;;;;5066312;28;20059;-72
2021/04/08 09:39:09;;;;;;;17.10;5.75;;;7.70;99.90;;;;;;5074157;28;20036;-72
2021/04/08 09:41:53;;;;;;;6.72;4.95;;;7.70;99.90;;;;;;5073560;28;20013;-69
2021/04/08 09:44:20;;;;;;;19.30;6.15;;;7.80;99.90;;;;;;5071696;28;20116;-73
2021/04/08 09:46:59;;;;;;;8.63;4.57;;;7.80;99.90;;;;;;5074582;28;20131;-73
2021/04/08 09:49:39;;;;;;;8.77;5.13;;;7.90;99.90;;;;;;5074584;28;20519;-73
2021/04/08 09:52:05;;;;;;;5.78;4.85;;;8.00;99.90;;;;;;5071443;28;20027;-73
2021/04/08 09:54:40;;;;;;;7.22;4.38;;;8.10;99.90;;;;;;5084493;28;20320;-73
2021/04/08 09:57:07;;;;;;;6.47;4.88;;;8.20;99.90;;;;;;5089163;28;20043;-72
2021/04/08 09:59:58;;;;;;;9.38;5.65;;;8.20;99.90;;;;;;5084516;28;20029;-73
2021/04/08 10:02:26;;;;;;;7.60;5.22;;;8.20;99.90;;;;;;5086902;28;20107;-73
2021/04/08 10:05:09;;;;;;;15.32;5.18;;;8.30;99.90;;;;;;5068747;28;20087;-73
2021/04/08 10:07:52;;;;;;;8.23;5.03;;;8.30;99.90;;;;;;5069224;28;20028;-73
2021/04/08 10:10:25;;;;;;;8.60;5.53;;;8.40;99.90;;;;;;5074297;28;20369;-72
2021/04/08 10:12:51;;;;;;;8.93;5.10;;;8.50;99.90;;;;;;5069762;28;20029;-73
2021/04/08 10:15:32;;;;;;;9.18;5.80;;;8.50;99.40;;;;;;5066103;28;20025;-73
2021/04/08 10:18:01;;;;;;;8.68;5.68;;;8.50;99.90;;;;;;5061828;28;20028;-73
2021/04/08 10:20:40;;;;;;;10.00;6.15;;;8.60;99.90;;;;;;5058664;28;20020;-72
2021/04/08 10:23:09;;;;;;;8.50;6.38;;;8.70;99.90;;;;;;5065129;28;20060;-73
2021/04/08 10:25:35;;;;;;;8.45;5.97;;;8.70;98.70;;;;;;5062550;28;20040;-71
2021/04/08 10:28:01;;;;;;;8.93;5.82;;;8.70;98.80;;;;;;5063389;28;20020;-73
2021/04/08 10:30:35;;;;;;;12.88;6.80;;;8.80;96.90;;;;;;5073227;28;20029;-74
2021/04/08 10:33:00;;;;;;;8.93;6.47;;;8.80;97.90;;;;;;5071698;28;20048;-73
2021/04/08 10:35:29;;;;;;;7.65;5.80;;;8.90;96.90;;;;;;5073073;28;20477;-73
2021/04/08 10:38:13;;;;;;;9.07;5.10;;;8.90;97.20;;;;;;5073060;28;20039;-73
2021/04/08 10:40:50;;;;;;;11.00;6.03;;;8.90;96.00;;;;;;5072138;28;20460;-72
2021/04/08 10:43:17;;;;;;;6.75;5.57;;;8.80;95.70;;;;;;5072411;28;20519;-72
2021/04/08 10:45:52;;;;;;;5.88;5.18;;;8.90;96.60;;;;;;5073675;28;20086;-73
2021/04/08 10:48:21;;;;;;;7.90;5.55;;;9.00;95.30;;;;;;5073130;28;20123;-74
2021/04/08 10:50:48;;;;;;;9.23;6.18;;;9.00;96.30;;;;;;5067061;28;20025;-73
2021/04/08 10:53:25;;;;;;;9.93;4.10;;;9.20;97.50;;;;;;5062944;28;20090;-74
2021/04/08 10:55:52;;;;;;;5.20;4.45;;;9.20;94.80;;;;;;5062008;28;20029;-73
2021/04/08 10:58:22;;;;;;;10.85;5.43;;;9.10;93.10;;;;;;5075063;28;20360;-73
2021/04/08 11:00:47;;;;;;;9.13;4.35;;;9.00;93.90;;;;;;5065957;28;20028;-74
2021/04/08 11:03:15;;;;;;;10.40;4.50;;;9.10;93.40;;;;;;5064233;28;20041;-74
2021/04/08 11:05:41;;;;;;;7.18;4.88;;;9.00;92.00;;;;;;5073635;28;20444;-73
2021/04/08 11:08:07;;;;;;;7.20;4.65;;;9.00;94.20;;;;;;5072077;28;20032;-74
2021/04/08 11:10:33;;;;;;;6.00;5.43;;;9.00;94.10;;;;;;5072395;28;20017;-73
2021/04/08 11:13:00;;;;;;;12.65;5.95;;;9.10;94.90;;;;;;5064502;28;20043;-73
2021/04/08 11:15:28;;;;;;;10.65;5.70;;;9.20;96.40;;;;;;5071093;28;20475;-73
2021/04/08 11:17:55;;;;;;;7.22;5.47;;;9.30;96.00;;;;;;5071791;28;20024;-73
2021/04/08 11:20:36;;;;;;;7.82;4.68;;;9.40;96.70;;;;;;5071154;28;20021;-74
2021/04/08 11:23:04;;;;;;;5.40;4.90;;;9.50;94.50;;;;;;5071972;28;20028;-74
2021/04/08 11:25:30;;;;;;;6.65;5.00;;;9.60;93.50;;;;;;5072201;28;20017;-73
2021/04/08 11:27:59;;;;;;;12.70;5.78;;;9.60;93.60;;;;;;5064634;28;20408;-73
2021/04/08 11:30:37;;;;;;;8.35;6.07;;;9.50;94.40;;;;;;5071163;28;20023;-73
2021/04/08 11:33:13;;;;;;;9.70;5.20;;;9.40;94.00;;;;;;5072434;28;20060;-73
2021/04/08 11:35:41;;;;;;;8.32;4.95;;;9.20;93.90;;;;;;5072447;28;20021;-73
2021/04/08 11:38:11;;;;;;;8.50;4.88;;;9.00;93.10;;;;;;5071332;28;20044;-74
2021/04/08 11:40:38;;;;;;;5.57;5.07;;;8.80;92.90;;;;;;5072182;28;20020;-74
2021/04/08 11:43:31;;;;;;;7.65;5.13;;;8.70;92.80;;;;;;5071469;28;20797;-74
2021/04/08 11:46:05;;;;;;;6.38;5.78;;;8.70;93.40;;;;;;5072356;28;20034;-73
2021/04/08 11:48:45;;;;;;;9.65;5.97;;;8.90;94.20;;;;;;5072289;28;20099;-73
2021/04/08 11:51:13;;;;;;;7.85;5.65;;;9.00;93.80;;;;;;5070817;28;20016;-73
2021/04/08 11:53:41;;;;;;;7.78;5.85;;;9.10;93.20;;;;;;5072042;28;20052;-75
2021/04/08 11:56:33;;;;;;;9.57;5.72;;;9.10;93.10;;;;;;5071818;28;20111;-73
2021/04/08 11:59:16;;;;;;;8.38;5.63;;;9.20;92.50;;;;;;5065059;28;20021;-73
2021/04/08 12:01:47;;;;;;;8.48;5.47;;;9.20;91.90;;;;;;5071964;28;20051;-74
2021/04/08 12:04:19;;;;;;;6.93;6.15;;;9.20;93.00;;;;;;5063683;28;20150;-73
2021/04/08 12:06:47;;;;;;;15.32;9.80;;;9.20;92.00;;;;;;5071758;28;20445;-73
2021/04/08 12:09:14;;;;;;;18.00;10.90;;;9.20;93.60;;;;;;5065398;28;20024;-73
2021/04/08 12:11:51;;;;;;;10.63;8.23;;;9.10;93.50;;;;;;5067114;28;20526;-73
2021/04/08 12:14:17;;;;;;;17.55;9.98;;;9.00;93.40;;;;;;5071900;28;20013;-74
2021/04/08 12:16:43;;;;;;;10.18;8.13;;;9.00;94.20;;;;;;5071976;28;20035;-72
2021/04/08 12:19:20;;;;;;;13.23;7.25;;;9.10;94.90;;;;;;5071118;28;20020;-73
2021/04/08 12:22:07;;;;;;;8.27;6.72;;;9.30;94.20;;;;;;5071208;28;20037;-74
2021/04/08 12:24:33;;;;;;;8.32;6.45;;;9.50;94.40;;;;;;5072358;28;20024;-75
2021/04/08 12:26:59;;;;;;;8.18;6.28;;;9.60;93.30;;;;;;5068335;28;20037;-75
2021/04/08 12:29:25;;;;;;;8.38;6.20;;;9.50;91.10;;;;;;5065315;28;20086;-74
2021/04/08 12:31:53;;;;;;;11.98;6.07;;;9.50;92.10;;;;;;5069077;28;20524;-74
2021/04/08 12:34:20;;;;;;;8.10;5.65;;;9.50;91.30;;;;;;5063609;28;20109;-75
2021/04/08 12:36:46;;;;;;;7.00;5.45;;;9.70;91.10;;;;;;5063936;28;20096;-73
2021/04/08 12:39:12;;;;;;;7.63;5.40;;;9.80;90.20;;;;;;5067756;28;20035;-74
2021/04/08 12:41:38;;;;;;;6.72;5.80;;;9.90;90.00;;;;;;5068228;28;20107;-75
2021/04/08 12:44:04;;;;;;;6.70;5.50;;;9.90;88.00;;;;;;5063463;28;20025;-76
2021/04/08 12:46:30;;;;;;;7.78;6.60;;;10.00;88.10;;;;;;5066884;28;20046;-76
2021/04/08 12:48:56;;;;;;;11.27;6.65;;;10.00;86.00;;;;;;5070342;28;20124;-76
2021/04/08 12:51:22;;;;;;;8.38;6.82;;;10.10;83.40;;;;;;5071010;28;20039;-76
2021/04/08 12:53:47;;;;;;;9.65;6.07;;;10.10;85.20;;;;;;5055628;28;20033;-76
2021/04/08 12:56:14;;;;;;;10.27;5.88;;;10.20;85.30;;;;;;5075600;28;20078;-77
2021/04/08 12:58:39;;;;;;;10.13;6.82;;;10.30;85.90;;;;;;5075512;28;20025;-76
2021/04/08 13:01:05;;;;;;;6.22;5.63;;;10.40;85.30;;;;;;5074704;28;20032;-76
2021/04/08 13:03:30;;;;;;;7.80;5.78;;;10.50;86.70;;;;;;5074358;28;20029;-76
2021/04/08 13:05:56;;;;;;;8.10;6.05;;;10.70;84.80;;;;;;5074184;28;20388;-76
2021/04/08 13:08:21;;;;;;;8.95;5.72;;;10.60;84.40;;;;;;5073158;28;20067;-75